Time;durP1;ratioP1;P1;durP2;ratioP2;P2;SDS_P1;SDS_P2;PMS_P1;PMS_P2;Temp;Humidity;BMP_temperature;BMP_pressure;BME280_temperature;BME280_humidity;BME280_pressure;Samples;Min_cycle;Max_cycle;Signal;HPM_P1;HPM_P2
2021/01/06 00:00:24;;;;;;;21.77;13.07;;;1.00;99.90;;;;;;475369;250;27568;-69
2021/01/06 00:02:26;;;;;;;24.17;13.20;;;1.10;99.90;;;;;;475465;250;27542;-70
2021/01/06 00:04:27;;;;;;;23.40;14.45;;;1.10;99.90;;;;;;475392;250;27973;-70
2021/01/06 00:06:28;;;;;;;19.37;12.98;;;1.10;99.90;;;;;;475410;250;27593;-69
2021/01/06 00:08:29;;;;;;;17.15;12.52;;;1.20;99.90;;;;;;475430;250;27610;-71
2021/01/06 00:10:31;;;;;;;19.45;11.93;;;1.30;99.90;;;;;;475368;250;27943;-69
2021/01/06 00:12:32;;;;;;;16.73;12.18;;;1.20;99.90;;;;;;475422;250;27990;-69
2021/01/06 00:14:33;;;;;;;20.65;13.57;;;1.10;99.90;;;;;;475410;250;27516;-69
2021/01/06 00:16:34;;;;;;;20.73;12.68;;;1.10;99.90;;;;;;475438;250;27503;-69
2021/01/06 00:18:36;;;;;;;21.20;13.27;;;1.00;99.90;;;;;;475499;250;27896;-70
2021/01/06 00:20:37;;;;;;;21.75;13.43;;;1.10;99.90;;;;;;475522;250;27532;-69
2021/01/06 00:22:38;;;;;;;19.45;13.73;;;1.00;99.90;;;;;;475501;250;27519;-69
2021/01/06 00:24:39;;;;;;;21.15;12.98;;;1.20;99.90;;;;;;475533;250;27991;-70
2021/01/06 00:26:41;;;;;;;16.62;11.65;;;1.20;99.90;;;;;;475459;250;28143;-69
2021/01/06 00:28:42;;;;;;;16.08;11.63;;;1.30;99.90;;;;;;475466;250;28048;-70
2021/01/06 00:30:45;;;;;;;12.65;10.20;;;1.10;99.90;;;;;;475319;250;27534;-70
2021/01/06 00:32:44;;;;;;;17.08;10.38;;;1.00;99.90;;;;;;475324;250;27513;-70
2021/01/06 00:34:46;;;;;;;18.95;11.23;;;0.90;99.90;;;;;;475390;250;27645;-70
2021/01/06 00:36:47;;;;;;;15.80;11.27;;;0.90;99.90;;;;;;475404;250;27531;-69
2021/01/06 00:38:51;;;;;;;15.52;10.85;;;0.90;99.90;;;;;;475410;250;27595;-69
2021/01/06 00:40:49;;;;;;;18.65;10.88;;;1.00;99.90;;;;;;475182;250;28061;-70
2021/01/06 00:42:51;;;;;;;14.38;10.23;;;1.10;99.90;;;;;;475428;250;27998;-70
2021/01/06 00:44:53;;;;;;;14.43;10.02;;;1.10;99.90;;;;;;475439;250;27523;-69
2021/01/06 00:46:53;;;;;;;16.00;9.70;;;1.10;99.90;;;;;;475425;250;27524;-70
2021/01/06 00:48:54;;;;;;;14.68;9.50;;;1.10;99.90;;;;;;475471;250;27584;-69
2021/01/06 00:50:56;;;;;;;12.88;9.65;;;1.10;99.90;;;;;;475423;250;27506;-70
2021/01/06 00:52:57;;;;;;;12.30;9.00;;;1.00;99.90;;;;;;475433;250;27868;-71
2021/01/06 00:54:58;;;;;;;12.13;9.70;;;1.00;99.90;;;;;;475449;250;27522;-69
2021/01/06 00:56:59;;;;;;;13.13;9.07;;;1.10;99.90;;;;;;475469;250;27563;-70
2021/01/06 00:59:01;;;;;;;13.82;9.80;;;1.10;99.90;;;;;;475468;250;27978;-69
2021/01/06 01:01:02;;;;;;;14.07;10.50;;;1.10;99.90;;;;;;475439;250;28017;-69
2021/01/06 01:03:03;;;;;;;13.55;9.75;;;1.00;99.90;;;;;;475636;250;27484;-68
2021/01/06 01:05:04;;;;;;;13.15;9.73;;;1.00;99.90;;;;;;475604;250;27511;-69
2021/01/06 01:07:06;;;;;;;14.18;9.82;;;1.00;99.90;;;;;;475608;250;27519;-71
2021/01/06 01:09:07;;;;;;;13.13;9.65;;;1.00;99.90;;;;;;475626;250;27633;-69
2021/01/06 01:13:19;;;;;;;12.93;10.15;;;1.00;99.90;;;;;;502740;236;27396;-69
2021/01/06 01:15:20;;;;;;;11.88;8.77;;;1.10;99.90;;;;;;504043;235;27897;-71
2021/01/06 01:17:21;;;;;;;14.77;10.23;;;1.10;99.90;;;;;;503968;236;27913;-69
2021/01/06 01:19:22;;;;;;;13.32;9.90;;;1.10;99.90;;;;;;504010;235;27897;-69
2021/01/06 01:21:24;;;;;;;16.17;10.88;;;1.10;99.90;;;;;;503798;236;27350;-69
2021/01/06 01:23:25;;;;;;;14.45;10.18;;;1.00;99.90;;;;;;503829;235;27397;-69
2021/01/06 01:25:26;;;;;;;12.93;10.25;;;1.10;99.90;;;;;;503821;235;27385;-70
2021/01/06 01:27:27;;;;;;;15.40;10.40;;;1.10;99.90;;;;;;503869;236;27457;-69
2021/01/06 01:29:29;;;;;;;13.02;9.85;;;1.10;99.90;;;;;;503866;236;27428;-70
2021/01/06 01:31:30;;;;;;;15.52;10.30;;;1.10;99.90;;;;;;503781;236;27599;-69
2021/01/06 01:33:31;;;;;;;12.32;9.32;;;1.10;99.90;;;;;;503840;235;27856;-70
2021/01/06 01:35:32;;;;;;;13.00;9.20;;;1.10;99.90;;;;;;503816;236;27958;-70
2021/01/06 01:37:34;;;;;;;12.00;9.70;;;1.10;99.90;;;;;;503770;236;27393;-69
2021/01/06 01:39:35;;;;;;;12.88;10.13;;;1.20;99.90;;;;;;503804;236;27500;-69
2021/01/06 01:41:36;;;;;;;13.55;10.57;;;1.30;99.90;;;;;;503766;236;27397;-70
2021/01/06 01:43:37;;;;;;;13.48;9.10;;;1.30;99.90;;;;;;503795;235;27392;-69
2021/01/06 01:45:39;;;;;;;12.88;9.00;;;1.40;99.90;;;;;;503756;236;27397;-70
2021/01/06 01:47:40;;;;;;;11.57;9.02;;;1.40;99.90;;;;;;503794;236;27418;-69
2021/01/06 01:49:41;;;;;;;10.55;8.10;;;1.30;99.90;;;;;;503944;236;27358;-69
2021/01/06 01:51:42;;;;;;;13.05;9.48;;;1.30;99.90;;;;;;496851;235;27907;-70
2021/01/06 01:53:44;;;;;;;12.32;8.32;;;1.20;99.90;;;;;;470794;252;28040;-70
2021/01/06 01:55:45;;;;;;;12.40;9.30;;;1.10;99.90;;;;;;470768;252;27968;-69
2021/01/06 01:57:46;;;;;;;11.10;8.77;;;1.10;99.90;;;;;;470807;252;27478;-69
2021/01/06 01:59:48;;;;;;;11.65;8.93;;;1.10;99.90;;;;;;470826;252;27437;-69
2021/01/06 02:01:49;;;;;;;12.65;9.43;;;1.10;99.90;;;;;;474492;238;27523;-70
2021/01/06 02:03:50;;;;;;;12.00;9.13;;;1.20;99.90;;;;;;481381;247;27500;-70
2021/01/06 02:05:51;;;;;;;11.20;9.50;;;1.10;99.90;;;;;;482405;245;27420;-69
2021/01/06 02:07:52;;;;;;;15.15;10.15;;;1.10;99.90;;;;;;482420;245;27430;-70
2021/01/06 02:09:54;;;;;;;13.88;9.65;;;1.10;99.90;;;;;;484884;245;27482;-69
2021/01/06 02:11:55;;;;;;;14.90;9.50;;;1.00;99.90;;;;;;484918;245;27871;-69
2021/01/06 02:13:56;;;;;;;17.17;10.80;;;1.00;99.90;;;;;;484972;245;27845;-69
2021/01/06 02:15:57;;;;;;;17.12;11.12;;;1.00;99.90;;;;;;484881;245;27423;-69
2021/01/06 02:17:59;;;;;;;12.18;9.90;;;1.00;99.90;;;;;;484729;245;27458;-70
2021/01/06 02:20:00;;;;;;;13.13;10.40;;;0.90;99.90;;;;;;484584;245;27452;-69
2021/01/06 02:22:01;;;;;;;14.18;10.13;;;1.00;99.90;;;;;;484663;245;27510;-69
2021/01/06 02:24:02;;;;;;;12.23;9.70;;;1.00;99.90;;;;;;484709;245;27408;-71
2021/01/06 02:26:04;;;;;;;15.77;11.32;;;1.00;99.90;;;;;;484701;245;27514;-69
2021/01/06 02:28:05;;;;;;;14.15;10.15;;;1.00;99.90;;;;;;484780;245;28078;-70
2021/01/06 02:30:06;;;;;;;16.52;10.80;;;1.00;99.90;;;;;;484766;245;27865;-69
2021/01/06 02:32:07;;;;;;;16.62;11.65;;;1.00;99.90;;;;;;484826;245;27459;-71
2021/01/06 02:34:09;;;;;;;15.85;11.00;;;1.00;99.90;;;;;;484858;245;27432;-72
2021/01/06 02:36:10;;;;;;;16.02;10.60;;;1.00;99.90;;;;;;484794;245;27469;-69
2021/01/06 02:38:11;;;;;;;14.10;10.32;;;1.10;99.90;;;;;;484758;245;27792;-70
2021/01/06 02:40:12;;;;;;;14.95;10.63;;;1.10;99.90;;;;;;484796;245;27458;-69
2021/01/06 02:42:14;;;;;;;15.00;11.02;;;1.00;99.90;;;;;;484798;245;27514;-70
2021/01/06 02:44:15;;;;;;;13.50;10.50;;;1.10;99.90;;;;;;484780;245;27966;-70
2021/01/06 02:46:16;;;;;;;13.05;10.32;;;1.10;99.90;;;;;;484775;245;28973;-70
2021/01/06 02:48:18;;;;;;;15.63;11.57;;;1.10;99.90;;;;;;484776;245;27431;-71
2021/01/06 02:50:19;;;;;;;18.50;11.02;;;1.00;99.90;;;;;;484733;245;27406;-69
2021/01/06 02:52:20;;;;;;;15.73;11.25;;;0.90;99.90;;;;;;484783;245;27419;-69
2021/01/06 02:54:21;;;;;;;14.23;10.43;;;1.00;99.90;;;;;;484791;245;27622;-69
2021/01/06 02:56:23;;;;;;;13.13;10.10;;;1.10;99.90;;;;;;484774;245;27568;-69
2021/01/06 02:58:24;;;;;;;15.18;11.45;;;1.20;99.90;;;;;;484788;245;27522;-70
2021/01/06 03:00:25;;;;;;;14.10;10.43;;;1.20;99.90;;;;;;484753;245;28091;-70
2021/01/06 03:02:26;;;;;;;17.90;11.50;;;1.20;99.90;;;;;;484769;245;27893;-70
2021/01/06 03:04:28;;;;;;;19.23;11.88;;;1.20;99.90;;;;;;484818;245;27507;-69
2021/01/06 03:06:29;;;;;;;18.00;11.68;;;1.20;99.90;;;;;;484785;245;27503;-69
2021/01/06 03:08:30;;;;;;;17.12;10.80;;;1.10;99.90;;;;;;484830;245;27521;-69
2021/01/06 03:10:31;;;;;;;15.80;10.82;;;1.20;99.90;;;;;;484804;245;27426;-70
2021/01/06 03:12:33;;;;;;;14.43;10.20;;;1.10;99.90;;;;;;484801;245;27455;-70
2021/01/06 03:14:34;;;;;;;14.05;9.90;;;1.10;99.90;;;;;;484770;245;27908;-70
2021/01/06 03:16:35;;;;;;;13.00;9.98;;;1.10;99.90;;;;;;484820;245;27962;-70
2021/01/06 03:18:36;;;;;;;13.13;9.55;;;1.10;99.90;;;;;;484797;245;27817;-69
2021/01/06 03:20:38;;;;;;;14.73;9.50;;;1.10;99.90;;;;;;484781;245;27503;-69
2021/01/06 03:22:39;;;;;;;16.15;10.32;;;1.20;99.90;;;;;;484778;245;27493;-70
2021/01/06 03:24:40;;;;;;;16.10;10.43;;;1.20;99.90;;;;;;484797;245;27419;-69
2021/01/06 03:26:41;;;;;;;13.45;10.02;;;1.20;99.90;;;;;;484824;245;27408;-70
2021/01/06 03:28:43;;;;;;;13.23;10.15;;;1.20;99.90;;;;;;484825;245;27368;-69
2021/01/06 03:30:44;;;;;;;11.65;9.25;;;1.20;99.90;;;;;;484762;245;27883;-69
2021/01/06 03:32:45;;;;;;;14.87;10.45;;;1.20;99.90;;;;;;484895;245;28631;-70
2021/01/06 03:34:46;;;;;;;12.73;9.48;;;1.00;99.90;;;;;;484913;245;27930;-69
2021/01/06 03:36:48;;;;;;;15.30;10.82;;;1.00;99.90;;;;;;484935;245;27414;-69
2021/01/06 03:38:49;;;;;;;13.18;9.80;;;1.00;99.90;;;;;;484945;245;27395;-69
2021/01/06 03:40:50;;;;;;;13.65;9.35;;;1.10;99.90;;;;;;484898;245;27565;-69
2021/01/06 03:42:51;;;;;;;15.15;10.20;;;1.20;99.90;;;;;;484934;245;27787;-71
2021/01/06 03:44:53;;;;;;;11.07;8.98;;;1.10;99.90;;;;;;484968;245;27511;-69
2021/01/06 03:46:54;;;;;;;12.05;9.90;;;1.10;99.90;;;;;;484984;245;27423;-70
2021/01/06 03:48:55;;;;;;;12.00;8.45;;;1.10;99.90;;;;;;484946;245;28022;-69
2021/01/06 03:50:56;;;;;;;11.48;8.65;;;1.00;99.90;;;;;;484906;245;28637;-70
2021/01/06 03:52:58;;;;;;;12.35;9.27;;;0.90;99.90;;;;;;484975;245;27899;-73
2021/01/06 03:54:59;;;;;;;12.35;9.68;;;0.90;99.90;;;;;;484980;245;27380;-70
2021/01/06 03:57:00;;;;;;;12.88;9.73;;;1.00;99.90;;;;;;484949;245;27427;-69
2021/01/06 03:59:01;;;;;;;14.18;10.05;;;1.00;99.90;;;;;;484878;245;27391;-69
2021/01/06 04:01:03;;;;;;;11.25;8.52;;;1.00;99.90;;;;;;484907;245;27503;-69
2021/01/06 04:03:04;;;;;;;13.98;9.48;;;1.10;99.90;;;;;;484349;245;28105;-70
2021/01/06 04:05:06;;;;;;;11.82;8.77;;;1.10;99.90;;;;;;484640;245;27395;-69
2021/01/06 04:07:06;;;;;;;11.93;9.40;;;1.00;99.90;;;;;;484705;245;27502;-69
2021/01/06 04:09:08;;;;;;;12.77;9.10;;;1.00;99.90;;;;;;484276;245;28358;-70
2021/01/06 04:11:09;;;;;;;11.88;8.65;;;1.10;99.90;;;;;;484264;245;27858;-69
2021/01/06 04:13:10;;;;;;;10.68;8.73;;;1.00;99.90;;;;;;484298;245;29089;-70
2021/01/06 04:15:11;;;;;;;12.60;8.88;;;1.00;99.90;;;;;;484461;245;27372;-69
2021/01/06 04:17:13;;;;;;;11.73;9.05;;;1.00;99.90;;;;;;484809;245;27458;-69
2021/01/06 04:19:14;;;;;;;12.88;9.00;;;1.00;99.90;;;;;;484756;245;27526;-70
2021/01/06 04:21:15;;;;;;;10.18;8.93;;;1.00;99.90;;;;;;484672;245;27495;-69
2021/01/06 04:23:16;;;;;;;11.50;8.75;;;1.10;99.90;;;;;;484688;245;27506;-69
2021/01/06 04:25:18;;;;;;;13.70;8.70;;;1.10;99.90;;;;;;484797;245;27461;-69
2021/01/06 04:27:19;;;;;;;11.65;8.63;;;1.20;99.90;;;;;;484730;245;27526;-70
2021/01/06 04:29:20;;;;;;;14.38;10.38;;;1.20;99.90;;;;;;484763;245;27982;-70
2021/01/06 04:31:22;;;;;;;13.02;10.13;;;1.30;99.90;;;;;;484718;245;27878;-69
2021/01/06 04:33:23;;;;;;;14.68;11.27;;;1.20;99.90;;;;;;484768;245;27414;-69
2021/01/06 04:35:24;;;;;;;13.62;10.23;;;1.30;99.90;;;;;;484773;245;27431;-71
2021/01/06 04:37:25;;;;;;;17.25;12.25;;;1.30;99.90;;;;;;484744;245;27428;-71
2021/01/06 04:39:27;;;;;;;18.00;11.95;;;1.10;99.90;;;;;;484763;245;27419;-69
2021/01/06 04:41:28;;;;;;;17.45;12.20;;;1.10;99.90;;;;;;484726;245;27435;-70
2021/01/06 04:43:29;;;;;;;17.50;12.13;;;1.00;99.90;;;;;;484793;245;27414;-69
2021/01/06 04:45:30;;;;;;;17.98;11.77;;;1.00;99.90;;;;;;484804;245;27899;-70
2021/01/06 04:47:32;;;;;;;15.55;11.40;;;1.00;99.90;;;;;;484782;245;28000;-70
2021/01/06 04:49:33;;;;;;;16.95;11.50;;;1.00;99.90;;;;;;484734;245;27419;-69
2021/01/06 04:51:34;;;;;;;16.17;11.10;;;1.10;99.90;;;;;;484704;245;27553;-70
2021/01/06 04:53:35;;;;;;;17.80;11.85;;;1.10;99.90;;;;;;484796;245;27394;-69
2021/01/06 04:55:37;;;;;;;15.45;11.02;;;1.00;99.90;;;;;;484823;245;27566;-70
2021/01/06 04:57:38;;;;;;;19.20;13.15;;;1.00;99.90;;;;;;484808;245;27427;-69
2021/01/06 04:59:39;;;;;;;15.65;11.77;;;1.10;99.90;;;;;;484758;245;27927;-69
2021/01/06 05:01:40;;;;;;;17.48;12.02;;;1.10;99.90;;;;;;484717;245;28071;-70
2021/01/06 05:03:43;;;;;;;14.93;10.55;;;1.10;99.90;;;;;;484794;245;27487;-69
2021/01/06 05:05:43;;;;;;;15.50;11.27;;;1.00;99.90;;;;;;484695;245;27431;-69
2021/01/06 05:07:44;;;;;;;15.00;10.60;;;1.00;99.90;;;;;;484779;245;27398;-69
2021/01/06 05:09:45;;;;;;;16.80;11.95;;;1.00;99.90;;;;;;484796;245;27505;-69
2021/01/06 05:11:47;;;;;;;16.40;11.12;;;1.00;99.90;;;;;;484807;245;27513;-70
2021/01/06 05:13:48;;;;;;;17.67;12.20;;;1.00;99.90;;;;;;484895;245;27454;-70
2021/01/06 05:15:49;;;;;;;14.85;11.30;;;1.10;99.90;;;;;;484908;245;28003;-69
2021/01/06 05:17:50;;;;;;;17.25;11.70;;;1.00;99.90;;;;;;484938;245;27809;-69
2021/01/06 05:19:52;;;;;;;17.40;12.02;;;1.00;99.90;;;;;;484900;245;27407;-69
2021/01/06 05:21:53;;;;;;;16.62;12.30;;;0.90;99.90;;;;;;484890;245;27431;-72
2021/01/06 05:23:54;;;;;;;16.92;12.00;;;1.00;99.90;;;;;;484889;245;27455;-69
2021/01/06 05:25:55;;;;;;;15.25;11.05;;;1.10;99.90;;;;;;484822;245;27518;-69
2021/01/06 05:27:57;;;;;;;15.75;11.45;;;1.10;99.90;;;;;;484733;245;27910;-70
2021/01/06 05:29:58;;;;;;;18.45;12.10;;;1.00;99.90;;;;;;484818;245;27478;-69
2021/01/06 05:31:59;;;;;;;16.67;11.30;;;1.00;99.90;;;;;;484816;245;27880;-70
2021/01/06 05:34:00;;;;;;;19.70;12.40;;;1.00;99.90;;;;;;484898;245;27839;-69
2021/01/06 05:36:02;;;;;;;16.85;11.98;;;1.00;99.90;;;;;;484909;245;27412;-69
2021/01/06 05:38:03;;;;;;;16.42;12.00;;;1.00;99.90;;;;;;484888;245;27497;-70
2021/01/06 05:40:04;;;;;;;18.27;12.10;;;1.10;99.90;;;;;;484819;245;27518;-69
2021/01/06 05:42:05;;;;;;;15.70;10.80;;;1.10;99.90;;;;;;484840;245;27517;-70
2021/01/06 05:44:07;;;;;;;14.87;11.70;;;1.10;99.90;;;;;;484842;245;27376;-69
2021/01/06 05:46:08;;;;;;;16.05;11.95;;;1.10;99.90;;;;;;484740;245;28099;-69
2021/01/06 05:48:09;;;;;;;17.35;12.05;;;1.20;99.90;;;;;;484781;245;28606;-70
2021/01/06 05:50:11;;;;;;;18.20;10.15;;;1.20;99.90;;;;;;484741;245;27851;-69
2021/01/06 05:52:12;;;;;;;13.80;10.45;;;1.10;99.90;;;;;;484846;245;27486;-71
2021/01/06 05:54:13;;;;;;;20.92;12.65;;;1.10;99.90;;;;;;484801;245;27415;-69
2021/01/06 05:56:14;;;;;;;15.40;10.85;;;1.00;99.90;;;;;;484787;245;27460;-69
2021/01/06 05:58:16;;;;;;;15.90;10.60;;;1.10;99.90;;;;;;484790;245;27431;-70
2021/01/06 06:00:19;;;;;;;12.55;9.52;;;1.10;99.90;;;;;;484741;245;27451;-69
2021/01/06 06:02:18;;;;;;;12.77;9.75;;;1.10;99.90;;;;;;484625;245;27898;-70
2021/01/06 06:04:19;;;;;;;13.48;8.90;;;1.20;99.90;;;;;;484723;245;28010;-70
2021/01/06 06:06:21;;;;;;;12.40;9.30;;;1.10;99.90;;;;;;484752;245;27886;-69
2021/01/06 06:08:22;;;;;;;12.30;9.90;;;1.10;99.90;;;;;;484754;245;27508;-69
2021/01/06 06:10:23;;;;;;;10.55;9.10;;;1.10;99.90;;;;;;484730;245;27503;-69
2021/01/06 06:12:24;;;;;;;10.57;8.52;;;1.10;99.90;;;;;;484778;245;27400;-69
2021/01/06 06:14:26;;;;;;;11.32;8.70;;;1.20;99.90;;;;;;484802;245;27610;-70
2021/01/06 06:16:27;;;;;;;10.40;7.75;;;1.20;99.90;;;;;;484782;245;27550;-72
2021/01/06 06:18:28;;;;;;;10.40;8.25;;;1.10;99.90;;;;;;484744;245;27427;-69
2021/01/06 06:20:29;;;;;;;11.02;8.50;;;1.10;99.90;;;;;;484752;245;27419;-70
2021/01/06 06:22:31;;;;;;;11.85;9.23;;;1.20;99.90;;;;;;484811;245;27919;-69
2021/01/06 06:24:32;;;;;;;11.32;8.95;;;1.20;99.90;;;;;;484825;245;27886;-70
2021/01/06 06:26:33;;;;;;;11.48;9.35;;;1.30;99.90;;;;;;484887;245;27885;-70
2021/01/06 06:28:34;;;;;;;10.18;8.32;;;1.30;99.90;;;;;;484886;245;27521;-69
2021/01/06 06:30:36;;;;;;;9.50;7.62;;;1.30;99.90;;;;;;484778;245;27442;-70
2021/01/06 06:32:37;;;;;;;12.93;9.18;;;1.30;99.90;;;;;;484833;245;27376;-69
2021/01/06 06:34:38;;;;;;;11.35;8.35;;;1.30;99.90;;;;;;484810;245;27456;-70
2021/01/06 06:36:39;;;;;;;12.05;9.35;;;1.20;99.90;;;;;;484786;245;27454;-70
2021/01/06 06:38:41;;;;;;;12.50;8.90;;;1.20;99.90;;;;;;484778;245;27393;-69
2021/01/06 06:40:42;;;;;;;14.00;8.63;;;1.20;99.90;;;;;;484773;245;27447;-69
2021/01/06 06:42:43;;;;;;;15.63;10.00;;;1.20;99.90;;;;;;484824;245;27577;-69
2021/01/06 06:44:44;;;;;;;12.57;9.32;;;1.30;99.90;;;;;;484771;245;27910;-69
2021/01/06 06:46:46;;;;;;;16.15;10.00;;;1.20;99.90;;;;;;484815;245;28141;-70
2021/01/06 06:48:47;;;;;;;15.95;10.02;;;1.30;99.90;;;;;;484860;245;27378;-69
2021/01/06 06:50:48;;;;;;;15.02;10.25;;;1.30;99.90;;;;;;484774;245;27436;-70
2021/01/06 06:52:49;;;;;;;13.75;9.57;;;1.30;99.90;;;;;;484870;245;27457;-69
2021/01/06 06:54:51;;;;;;;12.85;9.48;;;1.40;99.90;;;;;;484876;245;27439;-69
2021/01/06 06:56:52;;;;;;;13.75;9.50;;;1.30;99.90;;;;;;484909;245;27435;-71
2021/01/06 06:58:53;;;;;;;11.50;9.00;;;1.30;99.90;;;;;;484951;245;27379;-69
2021/01/06 07:00:54;;;;;;;12.50;9.60;;;1.20;99.90;;;;;;484894;245;27902;-69
2021/01/06 07:02:56;;;;;;;12.75;9.15;;;1.20;99.90;;;;;;484959;245;28789;-69
2021/01/06 07:04:57;;;;;;;13.43;9.75;;;1.20;99.90;;;;;;484925;245;27893;-69
2021/01/06 07:06:58;;;;;;;12.93;8.43;;;1.20;99.90;;;;;;484894;245;27601;-71
2021/01/06 07:08:59;;;;;;;12.57;8.80;;;1.20;99.90;;;;;;484894;245;27376;-69
2021/01/06 07:11:01;;;;;;;10.95;9.07;;;1.20;99.90;;;;;;484811;245;27504;-70
2021/01/06 07:13:02;;;;;;;12.90;9.57;;;1.20;99.90;;;;;;484761;245;27494;-69
2021/01/06 07:15:03;;;;;;;12.15;8.82;;;1.30;99.90;;;;;;484741;245;27494;-69
2021/01/06 07:17:04;;;;;;;11.82;9.00;;;1.40;99.90;;;;;;484763;245;27430;-69
2021/01/06 07:19:06;;;;;;;11.82;8.50;;;1.40;99.90;;;;;;484774;245;27415;-69
2021/01/06 07:21:07;;;;;;;13.85;9.25;;;1.30;99.90;;;;;;484750;245;27901;-69
2021/01/06 07:23:08;;;;;;;10.10;8.02;;;1.40;99.90;;;;;;484767;245;27902;-70
2021/01/06 07:25:09;;;;;;;11.88;9.27;;;1.40;99.90;;;;;;484760;245;27874;-70
2021/01/06 07:27:11;;;;;;;10.48;8.27;;;1.40;99.90;;;;;;484766;245;27414;-69
2021/01/06 07:29:12;;;;;;;10.18;8.05;;;1.50;99.90;;;;;;484773;245;27411;-69
2021/01/06 07:31:13;;;;;;;13.30;9.55;;;1.50;99.90;;;;;;484742;245;27422;-70
2021/01/06 07:33:14;;;;;;;10.90;7.55;;;1.40;99.90;;;;;;484768;245;27493;-70
2021/01/06 07:35:16;;;;;;;8.60;7.10;;;1.50;99.90;;;;;;484752;245;27426;-69
2021/01/06 07:37:17;;;;;;;8.73;7.12;;;1.40;99.90;;;;;;484762;245;27648;-70
2021/01/06 07:39:18;;;;;;;11.05;7.53;;;1.40;99.90;;;;;;484784;245;27404;-69
2021/01/06 07:41:19;;;;;;;9.32;7.28;;;1.40;99.90;;;;;;484729;245;27494;-70
2021/01/06 07:43:21;;;;;;;8.45;7.05;;;1.30;99.90;;;;;;484747;245;27887;-69
2021/01/06 07:45:24;;;;;;;10.13;7.75;;;1.30;99.90;;;;;;484756;245;27911;-69
2021/01/06 07:47:23;;;;;;;10.77;7.25;;;1.30;99.90;;;;;;484638;245;28030;-70
2021/01/06 07:49:24;;;;;;;10.98;8.13;;;1.30;99.90;;;;;;484764;245;27419;-70
2021/01/06 07:51:26;;;;;;;8.15;7.03;;;1.30;99.90;;;;;;484710;245;27431;-70
2021/01/06 07:53:27;;;;;;;10.02;7.82;;;1.30;99.90;;;;;;484773;245;27531;-69
2021/01/06 07:55:28;;;;;;;11.07;7.22;;;1.40;99.90;;;;;;484767;245;27425;-69
2021/01/06 07:57:29;;;;;;;10.00;7.50;;;1.30;99.90;;;;;;484743;245;27499;-69
2021/01/06 07:59:31;;;;;;;9.00;7.35;;;1.30;99.90;;;;;;484795;245;27423;-70
2021/01/06 08:01:34;;;;;;;9.25;7.32;;;1.30;99.90;;;;;;484723;245;27523;-70
2021/01/06 08:03:33;;;;;;;9.65;7.55;;;1.30;99.90;;;;;;484824;245;27402;-69
2021/01/06 08:05:35;;;;;;;10.55;7.43;;;1.40;99.90;;;;;;484752;245;27431;-69
2021/01/06 08:07:36;;;;;;;9.85;7.75;;;1.40;99.90;;;;;;484777;245;27835;-69
2021/01/06 08:09:37;;;;;;;8.98;7.25;;;1.40;99.90;;;;;;484793;245;27969;-69
2021/01/06 08:11:38;;;;;;;7.87;6.95;;;1.40;99.90;;;;;;484720;245;27968;-69
2021/01/06 08:13:40;;;;;;;9.10;6.87;;;1.30;99.90;;;;;;484756;245;27399;-69
2021/01/06 08:15:41;;;;;;;9.15;7.43;;;1.30;99.90;;;;;;484772;245;27419;-69
2021/01/06 08:17:42;;;;;;;8.52;7.32;;;1.30;99.90;;;;;;484794;245;27400;-69
2021/01/06 08:19:43;;;;;;;12.23;7.18;;;1.30;99.90;;;;;;484820;245;27539;-70
2021/01/06 08:21:45;;;;;;;7.75;6.37;;;1.30;99.90;;;;;;484769;245;27497;-69
2021/01/06 08:23:46;;;;;;;10.00;7.30;;;1.20;99.90;;;;;;484852;245;27503;-69
2021/01/06 08:25:47;;;;;;;10.57;7.72;;;1.30;99.90;;;;;;484955;245;27431;-70
2021/01/06 08:27:48;;;;;;;8.43;7.30;;;1.30;99.90;;;;;;484943;245;27462;-69
2021/01/06 08:29:50;;;;;;;10.98;8.15;;;1.30;99.90;;;;;;484937;245;27415;-70
2021/01/06 08:31:51;;;;;;;10.65;7.80;;;1.30;99.90;;;;;;484897;245;29063;-69
2021/01/06 08:33:53;;;;;;;9.25;7.30;;;1.30;99.90;;;;;;484944;245;27844;-69
2021/01/06 08:35:53;;;;;;;10.00;7.62;;;1.30;99.90;;;;;;484911;245;27890;-70
2021/01/06 08:37:55;;;;;;;6.95;5.75;;;1.40;99.90;;;;;;484780;245;27396;-69
2021/01/06 08:39:56;;;;;;;10.20;7.28;;;1.30;99.90;;;;;;484287;245;27531;-69
2021/01/06 08:41:57;;;;;;;9.98;6.78;;;1.30;99.90;;;;;;484465;245;27516;-69
2021/01/06 08:44:00;;;;;;;8.50;7.20;;;1.30;99.90;;;;;;484970;245;27383;-69
2021/01/06 08:46:00;;;;;;;8.23;6.95;;;1.40;99.90;;;;;;484852;245;27404;-69
2021/01/06 08:48:01;;;;;;;9.40;6.57;;;1.40;99.90;;;;;;484830;245;27459;-69
2021/01/06 08:50:02;;;;;;;13.77;9.57;;;1.40;99.90;;;;;;484760;245;27450;-69
2021/01/06 08:52:03;;;;;;;8.70;6.78;;;1.40;99.90;;;;;;484774;245;27419;-70
2021/01/06 08:54:05;;;;;;;10.05;7.68;;;1.30;99.90;;;;;;484742;245;27521;-69
2021/01/06 08:56:06;;;;;;;9.35;7.40;;;1.30;99.90;;;;;;484780;245;27871;-70
2021/01/06 08:58:07;;;;;;;11.05;6.85;;;1.30;99.90;;;;;;484789;245;27827;-69
2021/01/06 09:00:08;;;;;;;10.57;7.95;;;1.30;99.90;;;;;;484734;245;27902;-69
2021/01/06 09:02:10;;;;;;;9.35;7.87;;;1.30;99.90;;;;;;484796;245;27506;-69
2021/01/06 09:04:11;;;;;;;14.80;8.73;;;1.30;99.90;;;;;;484822;245;27400;-69
2021/01/06 09:06:12;;;;;;;8.13;6.90;;;1.30;99.90;;;;;;484841;245;27410;-71
2021/01/06 09:08:13;;;;;;;15.40;8.98;;;1.40;99.90;;;;;;484841;245;27479;-69
2021/01/06 09:10:15;;;;;;;10.85;7.68;;;1.50;99.90;;;;;;484753;245;27535;-70
2021/01/06 09:12:16;;;;;;;12.18;7.87;;;1.50;99.90;;;;;;484778;245;27537;-69
2021/01/06 09:14:17;;;;;;;10.05;8.27;;;1.40;99.90;;;;;;484737;245;27511;-69
2021/01/06 09:16:18;;;;;;;10.23;7.75;;;1.50;99.90;;;;;;484792;245;27458;-69
2021/01/06 09:18:20;;;;;;;11.00;8.45;;;1.50;99.90;;;;;;484778;245;27960;-71
2021/01/06 09:20:21;;;;;;;12.43;8.77;;;1.50;99.90;;;;;;484720;245;27895;-69
2021/01/06 09:22:22;;;;;;;10.43;7.90;;;1.40;99.90;;;;;;484739;245;27443;-70
2021/01/06 09:24:23;;;;;;;10.73;8.35;;;1.50;99.90;;;;;;484772;245;27410;-69
2021/01/06 09:26:25;;;;;;;9.05;7.35;;;1.50;99.90;;;;;;484761;245;27448;-69
2021/01/06 09:28:26;;;;;;;11.30;8.55;;;1.40;99.90;;;;;;484798;245;27415;-70
2021/01/06 09:30:27;;;;;;;10.77;7.80;;;1.40;99.90;;;;;;484744;245;27507;-70
2021/01/06 09:32:28;;;;;;;11.00;8.15;;;1.40;99.90;;;;;;484813;245;27597;-69
2021/01/06 09:34:30;;;;;;;12.35;7.45;;;1.40;99.90;;;;;;484789;245;27498;-69
2021/01/06 09:36:31;;;;;;;12.63;7.60;;;1.30;99.90;;;;;;484869;245;27505;-69
2021/01/06 09:38:32;;;;;;;11.45;8.15;;;1.40;99.90;;;;;;484862;245;27896;-69
2021/01/06 09:40:33;;;;;;;10.95;8.25;;;1.40;99.90;;;;;;484791;245;27977;-70
2021/01/06 09:42:35;;;;;;;12.43;8.65;;;1.50;99.90;;;;;;484764;245;27970;-70
2021/01/06 09:44:36;;;;;;;9.88;7.65;;;1.60;99.90;;;;;;484822;245;27411;-70
2021/01/06 09:46:37;;;;;;;10.50;7.72;;;1.60;99.90;;;;;;484808;245;27466;-68
2021/01/06 09:48:38;;;;;;;11.15;8.00;;;1.60;99.90;;;;;;484805;245;27419;-69
2021/01/06 09:50:40;;;;;;;11.00;8.13;;;1.60;99.90;;;;;;484773;245;27505;-70
2021/01/06 09:52:41;;;;;;;10.07;8.02;;;1.70;99.90;;;;;;484816;245;27407;-69
2021/01/06 09:54:42;;;;;;;9.75;7.45;;;1.70;99.90;;;;;;484821;245;27509;-70
2021/01/06 09:56:43;;;;;;;12.55;9.10;;;1.70;99.90;;;;;;484835;245;27471;-69
2021/01/06 09:58:45;;;;;;;11.25;7.57;;;1.70;99.90;;;;;;484805;245;28030;-69
2021/01/06 10:00:46;;;;;;;11.48;8.00;;;1.70;99.90;;;;;;484772;245;28617;-70
2021/01/06 10:02:47;;;;;;;11.18;8.43;;;1.80;99.90;;;;;;484833;245;27846;-69
2021/01/06 10:04:48;;;;;;;10.05;7.82;;;1.70;99.90;;;;;;484858;245;27514;-70
2021/01/06 10:06:50;;;;;;;11.07;8.15;;;1.70;99.90;;;;;;484915;245;27367;-69
2021/01/06 10:08:51;;;;;;;10.30;7.55;;;1.70;99.90;;;;;;484930;245;27513;-69
2021/01/06 10:10:52;;;;;;;11.82;8.77;;;1.70;99.90;;;;;;484908;245;27482;-70
2021/01/06 10:12:54;;;;;;;11.48;7.95;;;1.80;99.90;;;;;;484349;245;27535;-69
2021/01/06 10:14:55;;;;;;;9.45;7.72;;;1.80;99.90;;;;;;484460;245;27864;-69
2021/01/06 10:16:56;;;;;;;11.73;8.30;;;1.70;99.90;;;;;;484952;245;27468;-69
2021/01/06 10:18:57;;;;;;;10.40;7.95;;;1.70;99.90;;;;;;484906;245;27502;-69
2021/01/06 10:20:58;;;;;;;12.35;7.53;;;1.80;99.90;;;;;;484814;245;27983;-70
2021/01/06 10:23:00;;;;;;;9.10;7.53;;;1.70;99.90;;;;;;484763;245;27959;-69
2021/01/06 10:25:01;;;;;;;11.57;8.80;;;1.80;99.90;;;;;;484783;245;28979;-72
2021/01/06 10:27:02;;;;;;;9.02;7.28;;;1.80;99.90;;;;;;484786;245;27387;-69
2021/01/06 10:29:03;;;;;;;10.32;7.55;;;1.70;99.90;;;;;;484791;245;27442;-69